createdAt,value
2019-02-23T00:02:01.697Z,103041.30
2019-02-23T00:07:05.550Z,103050.31
2019-02-23T00:12:09.383Z,103039.75
2019-02-23T00:17:13.212Z,103030.36
2019-02-23T00:22:17.125Z,103049.09
2019-02-23T00:27:20.969Z,103064.86
2019-02-23T00:32:24.850Z,103072.09
2019-02-23T00:37:28.699Z,103071.16
2019-02-23T00:42:32.528Z,103062.64
2019-02-23T00:47:36.400Z,103048.83
2019-02-23T00:52:40.283Z,103049.21
2019-02-23T00:57:44.141Z,103043.11
2019-02-23T01:02:48.046Z,103043.11
2019-02-23T01:07:51.903Z,103039.49
2019-02-23T01:12:55.772Z,103046.27
2019-02-23T01:17:59.693Z,103039.75
2019-02-23T01:23:03.530Z,103039.20
2019-02-23T01:28:07.355Z,103050.00
2019-02-23T01:33:11.279Z,103050.00
2019-02-23T01:38:15.194Z,103055.43
2019-02-23T01:43:19.117Z,103023.85
2019-02-23T01:48:22.931Z,103011.30
2019-02-23T01:53:26.739Z,103000.09
2019-02-23T01:58:30.581Z,102999.22
2019-02-23T02:03:34.443Z,103026.27
2019-02-23T02:08:38.272Z,103033.09
2019-02-23T02:13:42.139Z,103033.09
2019-02-23T02:18:45.970Z,103019.33
2019-02-23T02:23:49.883Z,102988.48
2019-02-23T02:28:53.694Z,102982.45
2019-02-23T02:34:25.865Z,102968.80
2019-02-23T02:39:29.693Z,102971.95
2019-02-23T02:44:33.445Z,102965.27
2019-02-23T02:49:37.314Z,102966.20
2019-02-23T02:54:41.143Z,102966.20
2019-02-23T02:59:44.951Z,102967.72
2019-02-23T03:04:48.835Z,102967.72
2019-02-23T03:09:52.718Z,102971.22
2019-02-23T03:14:56.689Z,102956.11
2019-02-23T03:20:00.556Z,102956.11
2019-02-23T03:25:04.495Z,102949.93
2019-02-23T03:30:09.886Z,102949.93
2019-02-23T03:35:13.666Z,102928.95
2019-02-23T03:40:17.474Z,102943.30
2019-02-23T03:45:21.281Z,102928.67
2019-02-23T03:50:25.132Z,102939.92
2019-02-23T03:55:28.942Z,102939.92
2019-02-23T04:00:32.775Z,102926.53
2019-02-23T04:05:36.562Z,102924.17
2019-02-23T04:10:40.422Z,102924.17
2019-02-23T04:15:44.239Z,102913.70
2019-02-23T04:20:48.026Z,102919.83
2019-02-23T04:25:51.814Z,102919.83
2019-02-23T04:30:55.686Z,102919.94
2019-02-23T04:35:59.499Z,102920.12
2019-02-23T04:41:03.436Z,102918.37
2019-02-23T04:46:07.315Z,102918.37
2019-02-23T04:51:14.251Z,102910.73
2019-02-23T04:56:16.641Z,102919.33
2019-02-23T05:01:20.431Z,102934.55
2019-02-23T05:06:24.216Z,102931.05
2019-02-23T05:11:27.983Z,102923.47
2019-02-23T05:16:31.771Z,102911.05
2019-02-23T05:21:35.672Z,102911.05
2019-02-23T05:26:39.456Z,102919.51
2019-02-23T05:31:43.398Z,102907.98
2019-02-23T05:36:47.208Z,102916.03
2019-02-23T05:41:51.091Z,102920.11
2019-02-23T05:46:54.972Z,102920.11
2019-02-23T05:51:58.784Z,102939.06
2019-02-23T05:57:02.781Z,102939.06
2019-02-23T06:02:06.641Z,102943.91
2019-02-23T06:07:12.564Z,102943.91
2019-02-23T06:12:16.442Z,102940.92
2019-02-23T06:17:20.225Z,102940.92
2019-02-23T06:22:24.084Z,102949.44
2019-02-23T06:27:27.876Z,102966.02
2019-02-23T06:32:31.728Z,102990.27
2019-02-23T06:37:35.506Z,103006.81
2019-02-23T06:42:39.321Z,103006.81
2019-02-23T06:47:43.096Z,103013.63
2019-02-23T06:52:46.923Z,103013.63
2019-02-23T06:57:50.700Z,103031.98
2019-02-23T07:02:54.470Z,103043.14
2019-02-23T07:07:58.264Z,103058.36
2019-02-23T07:13:02.119Z,103071.82
2019-02-23T07:18:05.895Z,103061.97
2019-02-23T07:23:09.758Z,103061.97
2019-02-23T07:28:13.587Z,103072.75
2019-02-23T07:33:29.532Z,103080.33
2019-02-23T07:38:23.074Z,103068.67
2019-02-23T07:43:26.851Z,103073.63
2019-02-23T07:48:30.838Z,103073.63
2019-02-23T07:53:34.635Z,103085.17
2019-02-23T07:58:38.421Z,103119.42
2019-02-23T08:03:42.201Z,103136.36
2019-02-23T08:08:45.983Z,103117.54
2019-02-23T08:13:49.845Z,103114.22
2019-02-23T08:18:53.661Z,103128.37
2019-02-23T08:23:57.517Z,103122.79
2019-02-23T08:29:01.412Z,103123.45
2019-02-23T08:34:05.267Z,103121.26
2019-02-23T08:39:09.108Z,103121.26
2019-02-23T08:44:12.925Z,103104.94
2019-02-23T08:49:16.704Z,103091.68
2019-02-23T08:54:20.478Z,103089.58
2019-02-23T08:59:24.321Z,103089.58
2019-02-23T09:04:28.182Z,103074.95
2019-02-23T09:09:31.992Z,103074.95
2019-02-23T09:14:35.783Z,103086.09
2019-02-23T09:19:39.656Z,103082.12
2019-02-23T09:24:43.464Z,103082.12
2019-02-23T09:29:47.261Z,103070.81
2019-02-23T09:34:51.083Z,103070.81
2019-02-23T09:39:54.911Z,103072.62
2019-02-23T09:44:58.868Z,103081.61
2019-02-23T09:50:02.666Z,103075.83
2019-02-23T09:55:06.571Z,103075.83
2019-02-23T10:00:10.447Z,103062.89
2019-02-23T10:05:14.360Z,103057.05
2019-02-23T10:10:18.216Z,103042.76
2019-02-23T10:15:22.005Z,103043.25
2019-02-23T10:20:25.929Z,103043.25
2019-02-23T10:25:29.714Z,103025.71
2019-02-23T10:30:33.502Z,103025.71
2019-02-23T10:35:37.344Z,103000.30
2019-02-23T10:40:41.132Z,102997.14
2019-02-23T10:45:45.046Z,103000.70
2019-02-23T10:50:49.110Z,103000.70
2019-02-23T10:55:53.003Z,102998.11
2019-02-23T11:00:56.880Z,102986.47
2019-02-23T11:06:00.666Z,102986.47
2019-02-23T11:11:04.456Z,102965.27
2019-02-23T11:16:08.578Z,102945.48
2019-02-23T11:21:12.381Z,102955.73
2019-02-23T11:26:16.230Z,102936.67
2019-02-23T11:31:20.114Z,102942.77
2019-02-23T11:36:24.412Z,102925.52
2019-02-23T11:41:28.216Z,102919.80
2019-02-23T11:46:31.981Z,102919.80
2019-02-23T11:51:35.959Z,102918.77
2019-02-23T11:56:39.834Z,102921.63
2019-02-23T12:01:43.665Z,102914.58
2019-02-23T12:06:47.530Z,102914.58
2019-02-23T12:11:51.401Z,102916.06
2019-02-23T12:16:55.175Z,102915.72
2019-02-23T12:21:58.989Z,102912.45
2019-02-23T12:27:02.786Z,102910.58
2019-02-23T12:32:06.591Z,102910.58
2019-02-23T12:37:10.368Z,102907.56
2019-02-23T12:42:14.153Z,102899.52
2019-02-23T12:47:18.555Z,102899.52
2019-02-23T12:52:22.322Z,102883.27
2019-02-23T12:57:26.192Z,102886.48
2019-02-23T13:02:30.047Z,102884.73
2019-02-23T13:07:33.878Z,102881.73
2019-02-23T13:13:06.935Z,102881.73
2019-02-23T13:19:04.963Z,102867.96
2019-02-23T13:24:34.162Z,102869.25
2019-02-23T13:30:20.991Z,102883.92
2019-02-23T13:35:53.243Z,102885.48
2019-02-23T13:41:29.596Z,102885.86
2019-02-23T13:46:50.795Z,102883.09
2019-02-23T13:52:32.835Z,102883.09
2019-02-23T13:58:19.678Z,102883.42
2019-02-23T14:03:38.017Z,102879.21
2019-02-23T14:09:25.869Z,102874.72
2019-02-23T14:15:14.262Z,102855.05
2019-02-23T14:20:38.331Z,102860.67
2019-02-23T14:26:18.194Z,102846.81
2019-02-23T14:31:44.541Z,102846.81
2019-02-23T14:37:14.979Z,102841.79
2019-02-23T14:43:03.212Z,102827.31
2019-02-23T14:48:59.781Z,102827.31
2019-02-23T14:55:00.903Z,102813.08
2019-02-23T15:00:28.380Z,102813.08
2019-02-23T15:05:52.571Z,102824.56
2019-02-23T15:11:16.848Z,102823.81
2019-02-23T15:16:50.270Z,102813.30
2019-02-23T15:22:30.757Z,102797.72
2019-02-23T15:27:59.907Z,102787.77
2019-02-23T15:33:39.854Z,102794.25
2019-02-23T15:39:19.275Z,102797.58
2019-02-23T15:45:19.629Z,102806.20
2019-02-23T15:50:23.377Z,102806.20
2019-02-23T15:55:29.869Z,102812.22
2019-02-23T16:00:35.035Z,102814.44
2019-02-23T16:05:38.146Z,102810.70
2019-02-23T16:10:41.943Z,102806.11
2019-02-23T16:15:45.808Z,102815.51
2019-02-23T16:20:49.700Z,102808.52
2019-02-23T16:25:53.522Z,102812.51
2019-02-23T16:30:57.364Z,102812.04
2019-02-23T16:36:01.204Z,102807.23
2019-02-23T16:41:04.996Z,102807.23
2019-02-23T16:46:08.839Z,102814.41
2019-02-23T16:51:12.733Z,102833.89
2019-02-23T16:56:16.517Z,102833.89
2019-02-23T17:01:20.491Z,102819.88
2019-02-23T17:06:24.301Z,102808.92
2019-02-23T17:11:28.132Z,102802.14
2019-02-23T17:16:31.984Z,102802.14
2019-02-23T17:21:35.772Z,102807.25
2019-02-23T17:26:39.546Z,102811.48
2019-02-23T17:31:43.357Z,102800.46
2019-02-23T17:36:47.137Z,102808.11
2019-02-23T17:41:50.943Z,102810.48
2019-02-23T17:46:54.898Z,102790.23
2019-02-23T17:51:58.759Z,102798.45
2019-02-23T17:57:02.543Z,102799.66
2019-02-23T18:02:06.468Z,102799.66
2019-02-23T18:07:10.248Z,102782.33
2019-02-23T18:12:14.067Z,102785.92
2019-02-23T18:17:17.880Z,102785.92
2019-02-23T18:22:21.676Z,102785.07
2019-02-23T18:27:25.451Z,102755.50
2019-02-23T18:32:29.301Z,102755.50
2019-02-23T18:37:33.090Z,102762.13
2019-02-23T18:42:36.957Z,102756.23
2019-02-23T18:47:40.754Z,102745.39
2019-02-23T18:52:44.551Z,102747.55
2019-02-23T18:57:48.360Z,102750.53
2019-02-23T19:02:52.132Z,102751.98
2019-02-23T19:07:55.930Z,102747.71
2019-02-23T19:12:59.702Z,102753.25
2019-02-23T19:18:03.552Z,102754.28
2019-02-23T19:23:08.204Z,102754.28
2019-02-23T19:28:11.982Z,102747.42
2019-02-23T19:33:15.761Z,102744.13
2019-02-23T19:38:19.543Z,102736.79
2019-02-23T19:43:23.323Z,102747.20
2019-02-23T19:48:27.265Z,102729.02
2019-02-23T19:53:31.186Z,102732.68
2019-02-23T19:58:34.979Z,102732.68
2019-02-23T20:03:38.792Z,102729.74
2019-02-23T20:08:42.667Z,102729.74
2019-02-23T20:13:46.462Z,102728.59
2019-02-23T20:18:50.259Z,102713.98
2019-02-23T20:23:54.123Z,102718.17
2019-02-23T20:28:57.951Z,102720.20
2019-02-23T20:34:01.785Z,102725.25
2019-02-23T20:39:05.837Z,102733.79
2019-02-23T20:44:09.665Z,102743.73
2019-02-23T20:49:13.502Z,102740.42
2019-02-23T20:54:17.380Z,102736.00
2019-02-23T20:59:21.213Z,102735.02
2019-02-23T21:04:25.106Z,102737.70
2019-02-23T21:09:28.973Z,102737.70
2019-02-23T21:14:32.745Z,102733.11
2019-02-23T21:19:36.636Z,102724.58
2019-02-23T21:24:41.743Z,102721.53
2019-02-23T21:29:45.621Z,102718.66
2019-02-23T21:34:49.431Z,102718.66
2019-02-23T21:39:53.255Z,102714.41
2019-02-23T21:44:57.963Z,102705.69
2019-02-23T21:50:02.001Z,102701.11
2019-02-23T21:55:06.412Z,102701.11
2019-02-23T22:00:10.226Z,102696.20
2019-02-23T22:05:14.102Z,102696.20
2019-02-23T22:10:17.938Z,102696.52
2019-02-23T22:15:21.825Z,102696.38
2019-02-23T22:20:27.769Z,102696.38
2019-02-23T22:25:31.556Z,102699.34
2019-02-23T22:30:35.468Z,102699.34
2019-02-23T22:35:39.323Z,102701.70
2019-02-23T22:40:43.202Z,102701.70
2019-02-23T22:45:46.986Z,102711.45
2019-02-23T22:50:50.893Z,102708.47
2019-02-23T22:55:54.688Z,102708.47
2019-02-23T23:01:07.202Z,102682.36
2019-02-23T23:06:11.010Z,102693.26
2019-02-23T23:11:14.869Z,102683.78
2019-02-23T23:16:18.775Z,102676.78
2019-02-23T23:21:22.689Z,102679.31
2019-02-23T23:26:26.607Z,102674.28
2019-02-23T23:31:30.382Z,102689.48
2019-02-23T23:36:34.256Z,102689.48
2019-02-23T23:41:38.067Z,102694.35
2019-02-23T23:46:42.009Z,102690.48
2019-02-23T23:51:45.922Z,102693.95
2019-02-23T23:56:49.729Z,102697.61
